sensor_id;sensor_type;location;lat;lon;timestamp;P1;durP1;ratioP1;P2;durP2;ratioP2
69240;SDS011;56352;55.750;13.198;2023-07-13T00:01:52;4.32;;;1.40;;
69240;SDS011;56352;55.750;13.198;2023-07-13T00:04:19;4.35;;;1.80;;
69240;SDS011;56352;55.750;13.198;2023-07-13T00:06:47;7.07;;;2.08;;
69240;SDS011;56352;55.750;13.198;2023-07-13T00:09:14;4.85;;;1.55;;
69240;SDS011;56352;55.750;13.198;2023-07-13T00:11:41;4.82;;;1.60;;
69240;SDS011;56352;55.750;13.198;2023-07-13T00:14:08;4.10;;;1.83;;
69240;SDS011;56352;55.750;13.198;2023-07-13T00:16:35;5.32;;;1.95;;
69240;SDS011;56352;55.750;13.198;2023-07-13T00:19:02;3.40;;;1.60;;
69240;SDS011;56352;55.750;13.198;2023-07-13T00:21:29;5.68;;;1.60;;
69240;SDS011;56352;55.750;13.198;2023-07-13T00:23:55;4.90;;;1.80;;
69240;SDS011;56352;55.750;13.198;2023-07-13T00:26:22;6.45;;;2.00;;
69240;SDS011;56352;55.750;13.198;2023-07-13T00:28:48;5.38;;;1.75;;
69240;SDS011;56352;55.750;13.198;2023-07-13T00:31:15;6.30;;;1.88;;
69240;SDS011;56352;55.750;13.198;2023-07-13T00:33:41;3.85;;;1.70;;
69240;SDS011;56352;55.750;13.198;2023-07-13T00:36:11;5.90;;;1.80;;
69240;SDS011;56352;55.750;13.198;2023-07-13T00:38:38;4.43;;;1.60;;
69240;SDS011;56352;55.750;13.198;2023-07-13T00:41:05;6.10;;;1.80;;
69240;SDS011;56352;55.750;13.198;2023-07-13T00:43:31;7.03;;;1.67;;
69240;SDS011;56352;55.750;13.198;2023-07-13T00:48:29;3.92;;;1.92;;
69240;SDS011;56352;55.750;13.198;2023-07-13T00:50:57;4.80;;;1.70;;
69240;SDS011;56352;55.750;13.198;2023-07-13T00:53:25;5.15;;;1.85;;
69240;SDS011;56352;55.750;13.198;2023-07-13T00:55:52;6.53;;;1.60;;
69240;SDS011;56352;55.750;13.198;2023-07-13T00:58:19;6.60;;;1.70;;
69240;SDS011;56352;55.750;13.198;2023-07-13T01:00:46;7.00;;;1.95;;
69240;SDS011;56352;55.750;13.198;2023-07-13T01:03:13;4.93;;;1.55;;
69240;SDS011;56352;55.750;13.198;2023-07-13T01:05:39;3.75;;;1.80;;
69240;SDS011;56352;55.750;13.198;2023-07-13T01:08:06;3.95;;;1.75;;
69240;SDS011;56352;55.750;13.198;2023-07-13T01:10:32;4.72;;;1.80;;
69240;SDS011;56352;55.750;13.198;2023-07-13T01:13:06;2.95;;;1.75;;
69240;SDS011;56352;55.750;13.198;2023-07-13T01:15:40;8.43;;;2.28;;
69240;SDS011;56352;55.750;13.198;2023-07-13T01:18:11;5.00;;;1.67;;
69240;SDS011;56352;55.750;13.198;2023-07-13T01:20:38;5.18;;;1.85;;
69240;SDS011;56352;55.750;13.198;2023-07-13T01:23:06;5.05;;;1.90;;
69240;SDS011;56352;55.750;13.198;2023-07-13T01:25:33;3.95;;;1.80;;
69240;SDS011;56352;55.750;13.198;2023-07-13T01:28:00;6.15;;;1.80;;
69240;SDS011;56352;55.750;13.198;2023-07-13T01:30:27;3.58;;;1.80;;
69240;SDS011;56352;55.750;13.198;2023-07-13T01:32:53;5.03;;;1.83;;
69240;SDS011;56352;55.750;13.198;2023-07-13T01:35:20;7.00;;;2.35;;
69240;SDS011;56352;55.750;13.198;2023-07-13T01:37:46;5.05;;;2.20;;
69240;SDS011;56352;55.750;13.198;2023-07-13T01:40:14;6.03;;;1.80;;
69240;SDS011;56352;55.750;13.198;2023-07-13T01:42:40;4.43;;;1.70;;
69240;SDS011;56352;55.750;13.198;2023-07-13T01:45:07;7.68;;;2.03;;
69240;SDS011;56352;55.750;13.198;2023-07-13T01:47:34;5.97;;;1.90;;
69240;SDS011;56352;55.750;13.198;2023-07-13T01:50:00;6.10;;;2.38;;
69240;SDS011;56352;55.750;13.198;2023-07-13T01:52:27;5.50;;;1.88;;
69240;SDS011;56352;55.750;13.198;2023-07-13T01:54:53;5.63;;;1.65;;
69240;SDS011;56352;55.750;13.198;2023-07-13T01:57:20;6.15;;;2.20;;
69240;SDS011;56352;55.750;13.198;2023-07-13T01:59:47;5.82;;;2.28;;
69240;SDS011;56352;55.750;13.198;2023-07-13T02:02:13;6.90;;;2.78;;
69240;SDS011;56352;55.750;13.198;2023-07-13T02:04:40;3.67;;;1.90;;
69240;SDS011;56352;55.750;13.198;2023-07-13T02:07:07;4.88;;;1.80;;
69240;SDS011;56352;55.750;13.198;2023-07-13T02:09:34;2.70;;;2.03;;
69240;SDS011;56352;55.750;13.198;2023-07-13T02:12:01;5.28;;;1.80;;
69240;SDS011;56352;55.750;13.198;2023-07-13T02:14:28;9.02;;;2.10;;
69240;SDS011;56352;55.750;13.198;2023-07-13T02:16:55;5.97;;;2.10;;
69240;SDS011;56352;55.750;13.198;2023-07-13T02:19:21;5.65;;;1.98;;
69240;SDS011;56352;55.750;13.198;2023-07-13T02:21:48;4.65;;;1.80;;
69240;SDS011;56352;55.750;13.198;2023-07-13T02:24:14;6.55;;;1.80;;
69240;SDS011;56352;55.750;13.198;2023-07-13T02:26:44;5.22;;;1.98;;
69240;SDS011;56352;55.750;13.198;2023-07-13T02:29:10;4.38;;;2.30;;
69240;SDS011;56352;55.750;13.198;2023-07-13T02:31:37;7.25;;;2.00;;
69240;SDS011;56352;55.750;13.198;2023-07-13T02:34:04;7.00;;;2.20;;
69240;SDS011;56352;55.750;13.198;2023-07-13T02:36:31;5.32;;;2.03;;
69240;SDS011;56352;55.750;13.198;2023-07-13T02:39:00;6.15;;;1.92;;
69240;SDS011;56352;55.750;13.198;2023-07-13T02:41:27;7.90;;;2.55;;
69240;SDS011;56352;55.750;13.198;2023-07-13T02:43:53;7.93;;;2.40;;
69240;SDS011;56352;55.750;13.198;2023-07-13T02:46:20;5.57;;;2.28;;
69240;SDS011;56352;55.750;13.198;2023-07-13T02:48:47;5.75;;;2.60;;
69240;SDS011;56352;55.750;13.198;2023-07-13T02:51:13;4.53;;;2.17;;
69240;SDS011;56352;55.750;13.198;2023-07-13T02:53:40;3.67;;;2.38;;
69240;SDS011;56352;55.750;13.198;2023-07-13T02:56:06;9.25;;;2.40;;
69240;SDS011;56352;55.750;13.198;2023-07-13T02:58:34;9.05;;;2.40;;
69240;SDS011;56352;55.750;13.198;2023-07-13T03:01:05;5.35;;;1.98;;
69240;SDS011;56352;55.750;13.198;2023-07-13T03:03:32;7.07;;;2.47;;
69240;SDS011;56352;55.750;13.198;2023-07-13T03:06:00;3.78;;;1.92;;
69240;SDS011;56352;55.750;13.198;2023-07-13T03:08:28;8.95;;;2.20;;
69240;SDS011;56352;55.750;13.198;2023-07-13T03:11:01;8.07;;;2.42;;
69240;SDS011;56352;55.750;13.198;2023-07-13T03:13:28;5.70;;;2.30;;
69240;SDS011;56352;55.750;13.198;2023-07-13T03:15:55;7.93;;;2.60;;
69240;SDS011;56352;55.750;13.198;2023-07-13T03:18:21;7.45;;;2.35;;
69240;SDS011;56352;55.750;13.198;2023-07-13T03:20:51;7.53;;;2.65;;
69240;SDS011;56352;55.750;13.198;2023-07-13T03:23:18;8.52;;;2.50;;
69240;SDS011;56352;55.750;13.198;2023-07-13T03:25:44;5.88;;;2.40;;
69240;SDS011;56352;55.750;13.198;2023-07-13T03:28:11;9.07;;;2.53;;
69240;SDS011;56352;55.750;13.198;2023-07-13T03:30:38;8.10;;;2.92;;
69240;SDS011;56352;55.750;13.198;2023-07-13T03:33:05;7.93;;;2.85;;
69240;SDS011;56352;55.750;13.198;2023-07-13T03:35:34;5.35;;;2.45;;
69240;SDS011;56352;55.750;13.198;2023-07-13T03:38:01;6.28;;;2.13;;
69240;SDS011;56352;55.750;13.198;2023-07-13T03:40:28;7.57;;;2.85;;
69240;SDS011;56352;55.750;13.198;2023-07-13T03:42:54;3.30;;;2.08;;
69240;SDS011;56352;55.750;13.198;2023-07-13T03:45:21;6.07;;;2.35;;
69240;SDS011;56352;55.750;13.198;2023-07-13T03:47:48;5.32;;;2.47;;
69240;SDS011;56352;55.750;13.198;2023-07-13T03:50:14;8.93;;;2.75;;
69240;SDS011;56352;55.750;13.198;2023-07-13T03:52:41;7.40;;;2.15;;
69240;SDS011;56352;55.750;13.198;2023-07-13T03:55:08;6.28;;;2.58;;
69240;SDS011;56352;55.750;13.198;2023-07-13T03:57:35;4.30;;;2.42;;
69240;SDS011;56352;55.750;13.198;2023-07-13T04:00:05;6.95;;;2.30;;
69240;SDS011;56352;55.750;13.198;2023-07-13T04:02:32;7.07;;;2.58;;
69240;SDS011;56352;55.750;13.198;2023-07-13T04:04:58;5.72;;;2.25;;
69240;SDS011;56352;55.750;13.198;2023-07-13T04:07:25;9.68;;;2.65;;
69240;SDS011;56352;55.750;13.198;2023-07-13T04:09:52;6.13;;;2.50;;
69240;SDS011;56352;55.750;13.198;2023-07-13T04:12:19;5.13;;;2.60;;
69240;SDS011;56352;55.750;13.198;2023-07-13T04:14:45;4.80;;;2.17;;
69240;SDS011;56352;55.750;13.198;2023-07-13T04:17:12;8.52;;;2.45;;
69240;SDS011;56352;55.750;13.198;2023-07-13T04:19:38;6.30;;;2.22;;
69240;SDS011;56352;55.750;13.198;2023-07-13T04:22:05;6.20;;;2.28;;
69240;SDS011;56352;55.750;13.198;2023-07-13T04:24:32;8.70;;;2.50;;
69240;SDS011;56352;55.750;13.198;2023-07-13T04:26:58;7.90;;;2.38;;
69240;SDS011;56352;55.750;13.198;2023-07-13T04:29:26;4.55;;;2.42;;
69240;SDS011;56352;55.750;13.198;2023-07-13T04:31:53;7.47;;;2.30;;
69240;SDS011;56352;55.750;13.198;2023-07-13T04:34:19;5.95;;;2.33;;
69240;SDS011;56352;55.750;13.198;2023-07-13T04:36:46;3.75;;;2.50;;
69240;SDS011;56352;55.750;13.198;2023-07-13T04:39:12;6.20;;;2.42;;
69240;SDS011;56352;55.750;13.198;2023-07-13T04:41:39;2.75;;;2.20;;
69240;SDS011;56352;55.750;13.198;2023-07-13T04:44:06;9.43;;;2.70;;
69240;SDS011;56352;55.750;13.198;2023-07-13T04:46:32;6.55;;;2.65;;
69240;SDS011;56352;55.750;13.198;2023-07-13T04:48:59;6.85;;;2.45;;
69240;SDS011;56352;55.750;13.198;2023-07-13T04:51:25;3.78;;;2.30;;
69240;SDS011;56352;55.750;13.198;2023-07-13T04:53:52;5.20;;;2.50;;
69240;SDS011;56352;55.750;13.198;2023-07-13T04:56:26;6.40;;;2.20;;
69240;SDS011;56352;55.750;13.198;2023-07-13T04:58:52;6.63;;;2.10;;
69240;SDS011;56352;55.750;13.198;2023-07-13T05:01:19;6.45;;;2.15;;
69240;SDS011;56352;55.750;13.198;2023-07-13T05:03:46;3.80;;;2.20;;
69240;SDS011;56352;55.750;13.198;2023-07-13T05:06:13;7.65;;;2.40;;
69240;SDS011;56352;55.750;13.198;2023-07-13T05:08:40;7.38;;;2.58;;
69240;SDS011;56352;55.750;13.198;2023-07-13T05:11:06;7.18;;;2.63;;
69240;SDS011;56352;55.750;13.198;2023-07-13T05:13:34;5.60;;;2.60;;
69240;SDS011;56352;55.750;13.198;2023-07-13T05:16:03;6.10;;;2.20;;
69240;SDS011;56352;55.750;13.198;2023-07-13T05:18:30;4.40;;;1.92;;
69240;SDS011;56352;55.750;13.198;2023-07-13T05:21:07;5.80;;;2.20;;
69240;SDS011;56352;55.750;13.198;2023-07-13T05:23:35;8.95;;;2.10;;
69240;SDS011;56352;55.750;13.198;2023-07-13T05:26:02;4.68;;;2.05;;
69240;SDS011;56352;55.750;13.198;2023-07-13T05:28:33;6.47;;;1.90;;
69240;SDS011;56352;55.750;13.198;2023-07-13T05:31:00;6.13;;;2.13;;
69240;SDS011;56352;55.750;13.198;2023-07-13T05:33:27;6.85;;;2.30;;
69240;SDS011;56352;55.750;13.198;2023-07-13T05:35:54;5.53;;;2.00;;
69240;SDS011;56352;55.750;13.198;2023-07-13T05:38:20;4.70;;;1.55;;
69240;SDS011;56352;55.750;13.198;2023-07-13T05:40:47;6.55;;;1.98;;
69240;SDS011;56352;55.750;13.198;2023-07-13T05:43:13;6.18;;;1.70;;
69240;SDS011;56352;55.750;13.198;2023-07-13T05:45:40;5.38;;;1.52;;
69240;SDS011;56352;55.750;13.198;2023-07-13T05:48:07;6.40;;;2.08;;
69240;SDS011;56352;55.750;13.198;2023-07-13T05:50:34;5.05;;;1.67;;
69240;SDS011;56352;55.750;13.198;2023-07-13T05:53:00;4.35;;;1.85;;
69240;SDS011;56352;55.750;13.198;2023-07-13T05:55:27;9.02;;;2.33;;
69240;SDS011;56352;55.750;13.198;2023-07-13T05:57:53;4.90;;;1.77;;
69240;SDS011;56352;55.750;13.198;2023-07-13T06:00:20;4.32;;;1.67;;
69240;SDS011;56352;55.750;13.198;2023-07-13T06:02:46;4.80;;;1.60;;
69240;SDS011;56352;55.750;13.198;2023-07-13T06:05:13;6.55;;;2.00;;
69240;SDS011;56352;55.750;13.198;2023-07-13T06:07:40;5.05;;;2.00;;
69240;SDS011;56352;55.750;13.198;2023-07-13T06:10:07;4.10;;;1.50;;
69240;SDS011;56352;55.750;13.198;2023-07-13T06:12:33;4.20;;;1.88;;
69240;SDS011;56352;55.750;13.198;2023-07-13T06:15:00;4.38;;;1.88;;
69240;SDS011;56352;55.750;13.198;2023-07-13T06:17:26;3.78;;;1.90;;
69240;SDS011;56352;55.750;13.198;2023-07-13T06:19:53;5.05;;;2.05;;
69240;SDS011;56352;55.750;13.198;2023-07-13T06:22:20;7.10;;;1.75;;
69240;SDS011;56352;55.750;13.198;2023-07-13T06:24:47;5.45;;;1.70;;
69240;SDS011;56352;55.750;13.198;2023-07-13T06:27:13;6.18;;;2.00;;
69240;SDS011;56352;55.750;13.198;2023-07-13T06:29:40;4.25;;;1.83;;
69240;SDS011;56352;55.750;13.198;2023-07-13T06:32:07;6.55;;;2.15;;
69240;SDS011;56352;55.750;13.198;2023-07-13T06:34:34;5.15;;;1.70;;
69240;SDS011;56352;55.750;13.198;2023-07-13T06:37:00;4.43;;;1.45;;
69240;SDS011;56352;55.750;13.198;2023-07-13T06:39:27;6.05;;;2.22;;
69240;SDS011;56352;55.750;13.198;2023-07-13T06:41:53;6.38;;;1.92;;
69240;SDS011;56352;55.750;13.198;2023-07-13T06:44:19;5.70;;;1.88;;
69240;SDS011;56352;55.750;13.198;2023-07-13T06:46:46;5.25;;;1.75;;
69240;SDS011;56352;55.750;13.198;2023-07-13T06:49:13;6.93;;;1.80;;
69240;SDS011;56352;55.750;13.198;2023-07-13T06:51:39;5.15;;;1.48;;
69240;SDS011;56352;55.750;13.198;2023-07-13T06:54:06;3.67;;;1.70;;
69240;SDS011;56352;55.750;13.198;2023-07-13T06:56:32;3.85;;;2.00;;
69240;SDS011;56352;55.750;13.198;2023-07-13T06:58:59;5.05;;;1.77;;
69240;SDS011;56352;55.750;13.198;2023-07-13T07:01:26;4.47;;;1.48;;
69240;SDS011;56352;55.750;13.198;2023-07-13T07:03:52;3.55;;;1.67;;
69240;SDS011;56352;55.750;13.198;2023-07-13T07:06:20;3.22;;;1.55;;
69240;SDS011;56352;55.750;13.198;2023-07-13T07:08:47;6.15;;;1.75;;
69240;SDS011;56352;55.750;13.198;2023-07-13T07:11:14;5.68;;;1.83;;
69240;SDS011;56352;55.750;13.198;2023-07-13T07:13:41;7.50;;;1.80;;
69240;SDS011;56352;55.750;13.198;2023-07-13T07:16:07;5.20;;;1.90;;
69240;SDS011;56352;55.750;13.198;2023-07-13T07:18:35;5.10;;;1.60;;
69240;SDS011;56352;55.750;13.198;2023-07-13T07:21:01;1.90;;;1.33;;
69240;SDS011;56352;55.750;13.198;2023-07-13T07:23:28;4.70;;;1.52;;
69240;SDS011;56352;55.750;13.198;2023-07-13T07:25:55;4.05;;;1.95;;
69240;SDS011;56352;55.750;13.198;2023-07-13T07:28:21;3.85;;;1.40;;
69240;SDS011;56352;55.750;13.198;2023-07-13T07:30:52;4.40;;;1.70;;
69240;SDS011;56352;55.750;13.198;2023-07-13T07:33:39;3.38;;;1.73;;
69240;SDS011;56352;55.750;13.198;2023-07-13T07:36:06;5.15;;;1.85;;
69240;SDS011;56352;55.750;13.198;2023-07-13T07:38:35;3.03;;;1.60;;
69240;SDS011;56352;55.750;13.198;2023-07-13T07:41:03;3.17;;;1.60;;
69240;SDS011;56352;55.750;13.198;2023-07-13T07:43:33;3.15;;;1.73;;
69240;SDS011;56352;55.750;13.198;2023-07-13T07:45:59;6.50;;;2.08;;
69240;SDS011;56352;55.750;13.198;2023-07-13T07:50:55;4.93;;;1.90;;
69240;SDS011;56352;55.750;13.198;2023-07-13T07:53:21;6.22;;;2.00;;
69240;SDS011;56352;55.750;13.198;2023-07-13T07:55:48;4.30;;;1.77;;
69240;SDS011;56352;55.750;13.198;2023-07-13T07:58:18;2.05;;;1.50;;
69240;SDS011;56352;55.750;13.198;2023-07-13T08:01:05;4.28;;;1.75;;
69240;SDS011;56352;55.750;13.198;2023-07-13T08:03:35;5.50;;;2.05;;
69240;SDS011;56352;55.750;13.198;2023-07-13T08:06:04;5.53;;;1.63;;
69240;SDS011;56352;55.750;13.198;2023-07-13T08:08:34;3.55;;;1.70;;
69240;SDS011;56352;55.750;13.198;2023-07-13T08:11:04;4.78;;;1.60;;
69240;SDS011;56352;55.750;13.198;2023-07-13T08:13:51;5.93;;;1.50;;
69240;SDS011;56352;55.750;13.198;2023-07-13T08:16:20;6.78;;;2.00;;
69240;SDS011;56352;55.750;13.198;2023-07-13T08:18:48;6.13;;;2.30;;
69240;SDS011;56352;55.750;13.198;2023-07-13T08:21:14;4.57;;;2.15;;
69240;SDS011;56352;55.750;13.198;2023-07-13T08:23:41;4.88;;;1.55;;
69240;SDS011;56352;55.750;13.198;2023-07-13T08:26:07;5.90;;;1.50;;
69240;SDS011;56352;55.750;13.198;2023-07-13T08:28:34;3.30;;;1.63;;
69240;SDS011;56352;55.750;13.198;2023-07-13T08:31:02;2.08;;;1.35;;
69240;SDS011;56352;55.750;13.198;2023-07-13T08:33:28;3.25;;;1.73;;
69240;SDS011;56352;55.750;13.198;2023-07-13T08:35:55;4.10;;;1.70;;
69240;SDS011;56352;55.750;13.198;2023-07-13T08:38:22;6.40;;;1.70;;
69240;SDS011;56352;55.750;13.198;2023-07-13T08:40:50;5.05;;;1.90;;
69240;SDS011;56352;55.750;13.198;2023-07-13T08:43:18;3.92;;;1.65;;
69240;SDS011;56352;55.750;13.198;2023-07-13T08:45:47;5.20;;;1.60;;
69240;SDS011;56352;55.750;13.198;2023-07-13T08:48:21;4.43;;;1.50;;
69240;SDS011;56352;55.750;13.198;2023-07-13T08:50:55;2.17;;;1.30;;
69240;SDS011;56352;55.750;13.198;2023-07-13T08:53:31;6.07;;;1.30;;
69240;SDS011;56352;55.750;13.198;2023-07-13T08:55:59;3.40;;;1.00;;
69240;SDS011;56352;55.750;13.198;2023-07-13T08:58:26;4.82;;;1.20;;
69240;SDS011;56352;55.750;13.198;2023-07-13T09:03:22;4.40;;;1.45;;
69240;SDS011;56352;55.750;13.198;2023-07-13T09:05:51;4.40;;;1.40;;
69240;SDS011;56352;55.750;13.198;2023-07-13T09:08:29;3.00;;;1.33;;
69240;SDS011;56352;55.750;13.198;2023-07-13T09:16:09;5.05;;;1.20;;
69240;SDS011;56352;55.750;13.198;2023-07-13T09:18:44;3.47;;;1.60;;
69240;SDS011;56352;55.750;13.198;2023-07-13T09:21:13;3.58;;;1.23;;
69240;SDS011;56352;55.750;13.198;2023-07-13T09:23:41;4.70;;;1.40;;
69240;SDS011;56352;55.750;13.198;2023-07-13T09:26:12;3.60;;;1.23;;
69240;SDS011;56352;55.750;13.198;2023-07-13T09:28:47;5.28;;;1.63;;
69240;SDS011;56352;55.750;13.198;2023-07-13T09:33:48;3.90;;;1.30;;
69240;SDS011;56352;55.750;13.198;2023-07-13T09:38:43;5.70;;;1.10;;
69240;SDS011;56352;55.750;13.198;2023-07-13T09:46:31;6.43;;;1.50;;
69240;SDS011;56352;55.750;13.198;2023-07-13T09:48:57;4.95;;;1.45;;
69240;SDS011;56352;55.750;13.198;2023-07-13T09:51:24;3.20;;;1.25;;
69240;SDS011;56352;55.750;13.198;2023-07-13T09:53:50;4.65;;;1.30;;
69240;SDS011;56352;55.750;13.198;2023-07-13T09:58:47;4.75;;;1.60;;
69240;SDS011;56352;55.750;13.198;2023-07-13T10:01:13;3.65;;;1.40;;
69240;SDS011;56352;55.750;13.198;2023-07-13T10:03:51;3.70;;;1.40;;
69240;SDS011;56352;55.750;13.198;2023-07-13T10:06:20;5.03;;;1.73;;
69240;SDS011;56352;55.750;13.198;2023-07-13T10:08:49;3.70;;;1.73;;
69240;SDS011;56352;55.750;13.198;2023-07-13T10:11:21;7.05;;;2.05;;
69240;SDS011;56352;55.750;13.198;2023-07-13T10:13:56;7.03;;;1.73;;
69240;SDS011;56352;55.750;13.198;2023-07-13T10:16:27;7.45;;;1.88;;
69240;SDS011;56352;55.750;13.198;2023-07-13T10:19:22;4.75;;;2.10;;
69240;SDS011;56352;55.750;13.198;2023-07-13T10:21:58;7.10;;;2.00;;
69240;SDS011;56352;55.750;13.198;2023-07-13T10:24:31;4.18;;;1.50;;
69240;SDS011;56352;55.750;13.198;2023-07-13T10:29:32;2.80;;;1.30;;
69240;SDS011;56352;55.750;13.198;2023-07-13T10:32:01;2.55;;;1.10;;
69240;SDS011;56352;55.750;13.198;2023-07-13T10:34:28;5.05;;;1.50;;
69240;SDS011;56352;55.750;13.198;2023-07-13T10:36:55;2.92;;;1.17;;
69240;SDS011;56352;55.750;13.198;2023-07-13T10:39:23;4.50;;;1.35;;
69240;SDS011;56352;55.750;13.198;2023-07-13T10:41:54;3.85;;;1.10;;
69240;SDS011;56352;55.750;13.198;2023-07-13T10:44:26;4.30;;;1.58;;
69240;SDS011;56352;55.750;13.198;2023-07-13T10:49:22;6.85;;;1.35;;
69240;SDS011;56352;55.750;13.198;2023-07-13T10:51:49;6.75;;;1.55;;
69240;SDS011;56352;55.750;13.198;2023-07-13T10:54:19;7.28;;;2.00;;
69240;SDS011;56352;55.750;13.198;2023-07-13T10:56:52;5.55;;;2.15;;
69240;SDS011;56352;55.750;13.198;2023-07-13T10:59:24;8.02;;;2.08;;
69240;SDS011;56352;55.750;13.198;2023-07-13T11:01:56;3.22;;;1.52;;
69240;SDS011;56352;55.750;13.198;2023-07-13T11:04:23;3.30;;;1.60;;
69240;SDS011;56352;55.750;13.198;2023-07-13T11:06:58;4.70;;;1.30;;
69240;SDS011;56352;55.750;13.198;2023-07-13T11:09:35;8.20;;;1.60;;
69240;SDS011;56352;55.750;13.198;2023-07-13T11:12:10;5.20;;;1.65;;
69240;SDS011;56352;55.750;13.198;2023-07-13T11:22:45;3.97;;;1.70;;
69240;SDS011;56352;55.750;13.198;2023-07-13T11:27:49;2.95;;;1.30;;
69240;SDS011;56352;55.750;13.198;2023-07-13T11:32:45;1.75;;;0.98;;
69240;SDS011;56352;55.750;13.198;2023-07-13T11:35:17;2.83;;;1.13;;
69240;SDS011;56352;55.750;13.198;2023-07-13T11:37:46;1.95;;;1.15;;
69240;SDS011;56352;55.750;13.198;2023-07-13T11:40:13;3.37;;;0.90;;
69240;SDS011;56352;55.750;13.198;2023-07-13T11:42:40;2.85;;;1.38;;
69240;SDS011;56352;55.750;13.198;2023-07-13T11:45:20;2.33;;;1.10;;
69240;SDS011;56352;55.750;13.198;2023-07-13T11:48:00;1.20;;;1.00;;
69240;SDS011;56352;55.750;13.198;2023-07-13T11:50:27;2.83;;;1.00;;
69240;SDS011;56352;55.750;13.198;2023-07-13T11:52:54;1.63;;;0.80;;
69240;SDS011;56352;55.750;13.198;2023-07-13T11:55:22;2.53;;;0.88;;
69240;SDS011;56352;55.750;13.198;2023-07-13T11:57:57;3.75;;;1.15;;
69240;SDS011;56352;55.750;13.198;2023-07-13T12:00:28;1.63;;;0.80;;
69240;SDS011;56352;55.750;13.198;2023-07-13T12:02:59;1.80;;;0.85;;
69240;SDS011;56352;55.750;13.198;2023-07-13T12:05:27;1.00;;;0.90;;
69240;SDS011;56352;55.750;13.198;2023-07-13T12:07:53;1.70;;;0.93;;
69240;SDS011;56352;55.750;13.198;2023-07-13T12:12:57;1.88;;;0.90;;
69240;SDS011;56352;55.750;13.198;2023-07-13T12:15:27;1.52;;;0.80;;
69240;SDS011;56352;55.750;13.198;2023-07-13T12:17:55;1.17;;;0.60;;
69240;SDS011;56352;55.750;13.198;2023-07-13T12:22:50;1.13;;;0.70;;
69240;SDS011;56352;55.750;13.198;2023-07-13T12:25:17;2.50;;;0.90;;
69240;SDS011;56352;55.750;13.198;2023-07-13T12:27:48;2.75;;;0.90;;
69240;SDS011;56352;55.750;13.198;2023-07-13T12:33:02;1.55;;;0.80;;
69240;SDS011;56352;55.750;13.198;2023-07-13T12:35:39;1.30;;;1.08;;
69240;SDS011;56352;55.750;13.198;2023-07-13T12:38:08;3.05;;;0.90;;
69240;SDS011;56352;55.750;13.198;2023-07-13T12:40:35;2.92;;;0.93;;
69240;SDS011;56352;55.750;13.198;2023-07-13T12:43:03;1.25;;;0.85;;
69240;SDS011;56352;55.750;13.198;2023-07-13T12:45:33;1.55;;;0.93;;
69240;SDS011;56352;55.750;13.198;2023-07-13T12:48:03;3.53;;;0.90;;
69240;SDS011;56352;55.750;13.198;2023-07-13T12:50:36;1.15;;;0.85;;
69240;SDS011;56352;55.750;13.198;2023-07-13T12:53:04;1.85;;;1.00;;
69240;SDS011;56352;55.750;13.198;2023-07-13T12:55:40;1.88;;;0.80;;
69240;SDS011;56352;55.750;13.198;2023-07-13T12:58:09;0.90;;;0.80;;
69240;SDS011;56352;55.750;13.198;2023-07-13T13:00:39;2.78;;;1.27;;
69240;SDS011;56352;55.750;13.198;2023-07-13T13:03:29;2.05;;;0.90;;
69240;SDS011;56352;55.750;13.198;2023-07-13T13:05:57;3.47;;;0.93;;
69240;SDS011;56352;55.750;13.198;2023-07-13T13:08:23;1.90;;;0.90;;
69240;SDS011;56352;55.750;13.198;2023-07-13T13:10:50;1.67;;;0.88;;
69240;SDS011;56352;55.750;13.198;2023-07-13T13:13:16;2.70;;;1.15;;
69240;SDS011;56352;55.750;13.198;2023-07-13T13:15:43;2.80;;;1.00;;
69240;SDS011;56352;55.750;13.198;2023-07-13T13:18:19;3.00;;;0.98;;
69240;SDS011;56352;55.750;13.198;2023-07-13T13:20:46;2.33;;;0.93;;
69240;SDS011;56352;55.750;13.198;2023-07-13T13:23:16;2.65;;;1.20;;
69240;SDS011;56352;55.750;13.198;2023-07-13T13:25:45;3.38;;;1.10;;
69240;SDS011;56352;55.750;13.198;2023-07-13T13:28:13;2.00;;;0.88;;
69240;SDS011;56352;55.750;13.198;2023-07-13T13:30:41;2.22;;;1.17;;
69240;SDS011;56352;55.750;13.198;2023-07-13T13:33:09;3.70;;;1.10;;
69240;SDS011;56352;55.750;13.198;2023-07-13T13:35:36;1.30;;;0.82;;
69240;SDS011;56352;55.750;13.198;2023-07-13T13:38:04;2.25;;;1.05;;
69240;SDS011;56352;55.750;13.198;2023-07-13T13:40:31;2.97;;;1.00;;
69240;SDS011;56352;55.750;13.198;2023-07-13T13:42:57;2.25;;;1.10;;
69240;SDS011;56352;55.750;13.198;2023-07-13T13:45:27;4.75;;;1.10;;
69240;SDS011;56352;55.750;13.198;2023-07-13T13:47:54;1.70;;;1.08;;
69240;SDS011;56352;55.750;13.198;2023-07-13T13:50:21;2.42;;;1.00;;
69240;SDS011;56352;55.750;13.198;2023-07-13T13:52:50;3.50;;;1.10;;
69240;SDS011;56352;55.750;13.198;2023-07-13T13:55:18;2.08;;;1.00;;
69240;SDS011;56352;55.750;13.198;2023-07-13T13:57:45;2.75;;;1.23;;
69240;SDS011;56352;55.750;13.198;2023-07-13T14:00:12;3.13;;;1.05;;
69240;SDS011;56352;55.750;13.198;2023-07-13T14:02:41;4.93;;;1.30;;
69240;SDS011;56352;55.750;13.198;2023-07-13T14:05:09;2.08;;;1.33;;
69240;SDS011;56352;55.750;13.198;2023-07-13T14:07:38;2.53;;;1.27;;
69240;SDS011;56352;55.750;13.198;2023-07-13T14:10:08;2.53;;;1.20;;
69240;SDS011;56352;55.750;13.198;2023-07-13T14:12:35;2.45;;;1.33;;
69240;SDS011;56352;55.750;13.198;2023-07-13T14:15:02;1.35;;;1.20;;
69240;SDS011;56352;55.750;13.198;2023-07-13T14:17:28;4.07;;;1.30;;
69240;SDS011;56352;55.750;13.198;2023-07-13T14:19:55;5.13;;;1.25;;
69240;SDS011;56352;55.750;13.198;2023-07-13T14:22:25;1.73;;;1.00;;
69240;SDS011;56352;55.750;13.198;2023-07-13T14:24:55;2.00;;;1.00;;
69240;SDS011;56352;55.750;13.198;2023-07-13T14:27:23;3.40;;;1.00;;
69240;SDS011;56352;55.750;13.198;2023-07-13T14:29:50;1.65;;;1.00;;
69240;SDS011;56352;55.750;13.198;2023-07-13T14:32:17;3.30;;;1.00;;
69240;SDS011;56352;55.750;13.198;2023-07-13T14:34:43;2.75;;;0.90;;
69240;SDS011;56352;55.750;13.198;2023-07-13T14:37:14;3.85;;;0.90;;
69240;SDS011;56352;55.750;13.198;2023-07-13T14:39:43;1.05;;;0.68;;
69240;SDS011;56352;55.750;13.198;2023-07-13T14:42:10;1.63;;;0.88;;
69240;SDS011;56352;55.750;13.198;2023-07-13T14:44:37;1.63;;;0.70;;
69240;SDS011;56352;55.750;13.198;2023-07-13T14:47:04;2.88;;;0.82;;
69240;SDS011;56352;55.750;13.198;2023-07-13T14:49:32;1.55;;;0.80;;
69240;SDS011;56352;55.750;13.198;2023-07-13T14:52:01;1.20;;;0.73;;
69240;SDS011;56352;55.750;13.198;2023-07-13T14:54:28;2.67;;;1.33;;
69240;SDS011;56352;55.750;13.198;2023-07-13T14:56:54;1.38;;;0.90;;
69240;SDS011;56352;55.750;13.198;2023-07-13T14:59:21;1.85;;;0.90;;
69240;SDS011;56352;55.750;13.198;2023-07-13T15:01:48;1.90;;;0.80;;
69240;SDS011;56352;55.750;13.198;2023-07-13T15:04:15;2.33;;;1.03;;
69240;SDS011;56352;55.750;13.198;2023-07-13T15:06:55;1.30;;;0.85;;
69240;SDS011;56352;55.750;13.198;2023-07-13T15:09:22;1.92;;;0.82;;
69240;SDS011;56352;55.750;13.198;2023-07-13T15:11:50;2.88;;;1.15;;
69240;SDS011;56352;55.750;13.198;2023-07-13T15:14:17;1.95;;;0.88;;
69240;SDS011;56352;55.750;13.198;2023-07-13T15:16:49;3.00;;;1.15;;
69240;SDS011;56352;55.750;13.198;2023-07-13T15:19:16;3.90;;;1.00;;
69240;SDS011;56352;55.750;13.198;2023-07-13T15:21:43;1.63;;;1.00;;
69240;SDS011;56352;55.750;13.198;2023-07-13T15:24:10;2.22;;;0.88;;
69240;SDS011;56352;55.750;13.198;2023-07-13T15:26:36;2.10;;;1.00;;
69240;SDS011;56352;55.750;13.198;2023-07-13T15:31:31;2.72;;;1.00;;
69240;SDS011;56352;55.750;13.198;2023-07-13T15:33:59;1.73;;;0.95;;